sensor_id;sensor_type;location;lat;lon;timestamp;temperature;humidity
73438;DHT22;62744;56.802;23.964;2022-10-10T00:01:26;2.00;89.70
73438;DHT22;62744;56.802;23.964;2022-10-10T00:03:56;1.90;89.30
73438;DHT22;62744;56.802;23.964;2022-10-10T00:06:24;1.90;89.00
73438;DHT22;62744;56.802;23.964;2022-10-10T00:08:59;1.80;89.00
73438;DHT22;62744;56.802;23.964;2022-10-10T00:11:26;1.80;89.40
73438;DHT22;62744;56.802;23.964;2022-10-10T00:13:54;1.90;89.50
73438;DHT22;62744;56.802;23.964;2022-10-10T00:16:22;1.80;89.80
73438;DHT22;62744;56.802;23.964;2022-10-10T00:18:50;1.70;89.70
73438;DHT22;62744;56.802;23.964;2022-10-10T00:21:18;1.80;89.50
73438;DHT22;62744;56.802;23.964;2022-10-10T00:23:46;1.80;89.50
73438;DHT22;62744;56.802;23.964;2022-10-10T00:26:13;1.70;90.10
73438;DHT22;62744;56.802;23.964;2022-10-10T00:28:45;1.90;90.20
73438;DHT22;62744;56.802;23.964;2022-10-10T00:31:13;1.60;90.50
73438;DHT22;62744;56.802;23.964;2022-10-10T00:33:40;1.70;90.30
73438;DHT22;62744;56.802;23.964;2022-10-10T00:36:08;1.80;90.40
73438;DHT22;62744;56.802;23.964;2022-10-10T00:38:36;1.90;90.20
73438;DHT22;62744;56.802;23.964;2022-10-10T00:41:04;1.80;89.80
73438;DHT22;62744;56.802;23.964;2022-10-10T00:43:32;1.80;90.10
73438;DHT22;62744;56.802;23.964;2022-10-10T00:46:00;1.70;90.60
73438;DHT22;62744;56.802;23.964;2022-10-10T00:48:47;1.80;90.80
73438;DHT22;62744;56.802;23.964;2022-10-10T00:51:17;1.90;90.90
73438;DHT22;62744;56.802;23.964;2022-10-10T00:53:48;1.60;90.90
73438;DHT22;62744;56.802;23.964;2022-10-10T00:56:20;1.90;90.90
73438;DHT22;62744;56.802;23.964;2022-10-10T00:58:52;1.90;91.20
73438;DHT22;62744;56.802;23.964;2022-10-10T01:01:21;2.10;91.50
73438;DHT22;62744;56.802;23.964;2022-10-10T01:03:48;1.90;91.80
73438;DHT22;62744;56.802;23.964;2022-10-10T01:06:16;1.80;91.70
73438;DHT22;62744;56.802;23.964;2022-10-10T01:08:44;2.10;91.80
73438;DHT22;62744;56.802;23.964;2022-10-10T01:14:08;2.10;91.80
73438;DHT22;62744;56.802;23.964;2022-10-10T01:16:48;1.90;91.70
73438;DHT22;62744;56.802;23.964;2022-10-10T01:19:49;2.10;91.70
73438;DHT22;62744;56.802;23.964;2022-10-10T01:22:38;2.20;91.80
73438;DHT22;62744;56.802;23.964;2022-10-10T01:25:28;2.10;91.90
73438;DHT22;62744;56.802;23.964;2022-10-10T01:28:05;2.30;92.10
73438;DHT22;62744;56.802;23.964;2022-10-10T01:30:39;2.20;92.20
73438;DHT22;62744;56.802;23.964;2022-10-10T01:33:16;2.30;92.30
73438;DHT22;62744;56.802;23.964;2022-10-10T01:36:15;2.40;92.60
73438;DHT22;62744;56.802;23.964;2022-10-10T01:42:03;2.40;93.40
73438;DHT22;62744;56.802;23.964;2022-10-10T01:44:33;2.30;93.70
73438;DHT22;62744;56.802;23.964;2022-10-10T01:47:00;2.60;93.90
73438;DHT22;62744;56.802;23.964;2022-10-10T01:49:30;2.60;94.10
73438;DHT22;62744;56.802;23.964;2022-10-10T01:52:04;2.50;94.00
73438;DHT22;62744;56.802;23.964;2022-10-10T01:55:16;2.70;94.20
73438;DHT22;62744;56.802;23.964;2022-10-10T02:00:22;2.80;94.60
73438;DHT22;62744;56.802;23.964;2022-10-10T02:08:32;2.90;95.10
73438;DHT22;62744;56.802;23.964;2022-10-10T02:11:03;3.10;94.90
73438;DHT22;62744;56.802;23.964;2022-10-10T02:13:41;3.10;95.00
73438;DHT22;62744;56.802;23.964;2022-10-10T02:16:15;3.20;94.90
73438;DHT22;62744;56.802;23.964;2022-10-10T02:18:46;3.20;95.10
73438;DHT22;62744;56.802;23.964;2022-10-10T02:21:15;3.20;95.00
73438;DHT22;62744;56.802;23.964;2022-10-10T02:23:47;3.40;94.90
73438;DHT22;62744;56.802;23.964;2022-10-10T02:26:17;3.20;95.20
73438;DHT22;62744;56.802;23.964;2022-10-10T02:28:54;3.30;95.20
73438;DHT22;62744;56.802;23.964;2022-10-10T02:31:48;3.40;95.00
73438;DHT22;62744;56.802;23.964;2022-10-10T02:34:24;3.40;95.20
73438;DHT22;62744;56.802;23.964;2022-10-10T02:37:00;3.40;95.10
73438;DHT22;62744;56.802;23.964;2022-10-10T02:39:32;3.50;95.40
73438;DHT22;62744;56.802;23.964;2022-10-10T02:42:04;3.50;95.50
73438;DHT22;62744;56.802;23.964;2022-10-10T02:44:33;3.60;95.30
73438;DHT22;62744;56.802;23.964;2022-10-10T02:47:01;3.50;95.60
73438;DHT22;62744;56.802;23.964;2022-10-10T02:49:31;3.50;95.30
73438;DHT22;62744;56.802;23.964;2022-10-10T02:52:00;3.60;95.50
73438;DHT22;62744;56.802;23.964;2022-10-10T02:54:28;3.80;95.50
73438;DHT22;62744;56.802;23.964;2022-10-10T02:56:55;3.60;95.70
73438;DHT22;62744;56.802;23.964;2022-10-10T02:59:23;3.60;95.90
73438;DHT22;62744;56.802;23.964;2022-10-10T03:01:51;3.70;95.80
73438;DHT22;62744;56.802;23.964;2022-10-10T03:04:19;3.70;95.90
73438;DHT22;62744;56.802;23.964;2022-10-10T03:06:46;3.80;96.00
73438;DHT22;62744;56.802;23.964;2022-10-10T03:09:14;3.80;96.20
73438;DHT22;62744;56.802;23.964;2022-10-10T03:11:41;4.10;96.30
73438;DHT22;62744;56.802;23.964;2022-10-10T03:14:09;4.00;96.20
73438;DHT22;62744;56.802;23.964;2022-10-10T03:16:37;4.20;96.20
73438;DHT22;62744;56.802;23.964;2022-10-10T03:19:04;4.10;96.20
73438;DHT22;62744;56.802;23.964;2022-10-10T03:21:35;3.80;96.40
73438;DHT22;62744;56.802;23.964;2022-10-10T03:24:02;4.20;96.50
73438;DHT22;62744;56.802;23.964;2022-10-10T03:26:31;4.20;96.70
73438;DHT22;62744;56.802;23.964;2022-10-10T03:29:01;4.20;96.50
73438;DHT22;62744;56.802;23.964;2022-10-10T03:31:29;4.30;96.70
73438;DHT22;62744;56.802;23.964;2022-10-10T03:33:57;4.20;96.90
73438;DHT22;62744;56.802;23.964;2022-10-10T03:36:24;4.30;96.90
73438;DHT22;62744;56.802;23.964;2022-10-10T03:38:53;4.40;96.80
73438;DHT22;62744;56.802;23.964;2022-10-10T03:41:20;4.40;96.80
73438;DHT22;62744;56.802;23.964;2022-10-10T03:43:48;4.50;97.00
73438;DHT22;62744;56.802;23.964;2022-10-10T03:46:15;4.30;96.50
73438;DHT22;62744;56.802;23.964;2022-10-10T03:48:43;4.30;96.60
73438;DHT22;62744;56.802;23.964;2022-10-10T03:51:10;4.20;96.40
73438;DHT22;62744;56.802;23.964;2022-10-10T03:53:38;4.50;96.30
73438;DHT22;62744;56.802;23.964;2022-10-10T03:56:06;4.50;96.50
73438;DHT22;62744;56.802;23.964;2022-10-10T03:58:33;4.30;96.30
73438;DHT22;62744;56.802;23.964;2022-10-10T04:01:02;4.30;96.50
73438;DHT22;62744;56.802;23.964;2022-10-10T04:03:31;4.40;96.40
73438;DHT22;62744;56.802;23.964;2022-10-10T04:05:59;4.50;96.50
73438;DHT22;62744;56.802;23.964;2022-10-10T04:08:26;4.30;96.10
73438;DHT22;62744;56.802;23.964;2022-10-10T04:10:56;4.50;96.20
73438;DHT22;62744;56.802;23.964;2022-10-10T04:13:24;4.30;96.10
73438;DHT22;62744;56.802;23.964;2022-10-10T04:15:55;4.40;96.30
73438;DHT22;62744;56.802;23.964;2022-10-10T04:18:23;4.30;95.80
73438;DHT22;62744;56.802;23.964;2022-10-10T04:20:51;4.30;96.20
73438;DHT22;62744;56.802;23.964;2022-10-10T04:23:20;4.40;96.20
73438;DHT22;62744;56.802;23.964;2022-10-10T04:25:50;4.40;96.10
73438;DHT22;62744;56.802;23.964;2022-10-10T04:28:18;4.30;96.20
73438;DHT22;62744;56.802;23.964;2022-10-10T04:30:46;4.40;96.30
73438;DHT22;62744;56.802;23.964;2022-10-10T04:33:14;4.50;96.10
73438;DHT22;62744;56.802;23.964;2022-10-10T04:35:41;4.30;95.90
73438;DHT22;62744;56.802;23.964;2022-10-10T04:38:09;4.30;96.10
73438;DHT22;62744;56.802;23.964;2022-10-10T04:40:36;4.40;96.00
73438;DHT22;62744;56.802;23.964;2022-10-10T04:43:04;4.20;95.90
73438;DHT22;62744;56.802;23.964;2022-10-10T04:45:32;4.20;95.90
73438;DHT22;62744;56.802;23.964;2022-10-10T04:48:03;4.40;95.70
73438;DHT22;62744;56.802;23.964;2022-10-10T04:50:31;4.20;95.60
73438;DHT22;62744;56.802;23.964;2022-10-10T04:52:59;4.20;95.50
73438;DHT22;62744;56.802;23.964;2022-10-10T04:55:26;4.30;96.60
73438;DHT22;62744;56.802;23.964;2022-10-10T04:57:54;6.10;99.90
73438;DHT22;62744;56.802;23.964;2022-10-10T05:00:21;7.20;98.20
73438;DHT22;62744;56.802;23.964;2022-10-10T05:02:49;7.10;90.80
73438;DHT22;62744;56.802;23.964;2022-10-10T05:05:17;6.60;88.80
73438;DHT22;62744;56.802;23.964;2022-10-10T05:07:45;6.30;88.20
73438;DHT22;62744;56.802;23.964;2022-10-10T05:10:15;6.00;88.40
73438;DHT22;62744;56.802;23.964;2022-10-10T05:12:43;5.70;89.40
73438;DHT22;62744;56.802;23.964;2022-10-10T05:15:10;5.60;89.70
73438;DHT22;62744;56.802;23.964;2022-10-10T05:17:38;5.50;90.20
73438;DHT22;62744;56.802;23.964;2022-10-10T05:20:06;5.60;90.20
73438;DHT22;62744;56.802;23.964;2022-10-10T05:22:33;5.90;90.10
73438;DHT22;62744;56.802;23.964;2022-10-10T05:25:02;6.10;89.90
73438;DHT22;62744;56.802;23.964;2022-10-10T05:27:29;5.90;88.90
73438;DHT22;62744;56.802;23.964;2022-10-10T05:29:57;5.80;89.00
73438;DHT22;62744;56.802;23.964;2022-10-10T05:32:24;5.70;89.40
73438;DHT22;62744;56.802;23.964;2022-10-10T05:34:52;5.60;89.70
73438;DHT22;62744;56.802;23.964;2022-10-10T05:37:19;5.60;89.90
73438;DHT22;62744;56.802;23.964;2022-10-10T05:39:47;5.40;90.00
73438;DHT22;62744;56.802;23.964;2022-10-10T05:42:20;5.20;90.40
73438;DHT22;62744;56.802;23.964;2022-10-10T05:44:48;5.20;91.40
73438;DHT22;62744;56.802;23.964;2022-10-10T05:47:15;5.30;91.60
73438;DHT22;62744;56.802;23.964;2022-10-10T05:49:43;5.50;91.70
73438;DHT22;62744;56.802;23.964;2022-10-10T05:52:11;5.90;91.50
73438;DHT22;62744;56.802;23.964;2022-10-10T05:54:38;6.40;90.70
73438;DHT22;62744;56.802;23.964;2022-10-10T05:57:06;6.50;90.10
73438;DHT22;62744;56.802;23.964;2022-10-10T05:59:38;6.70;89.50
73438;DHT22;62744;56.802;23.964;2022-10-10T06:02:06;6.70;89.10
73438;DHT22;62744;56.802;23.964;2022-10-10T06:04:33;6.80;89.00
73438;DHT22;62744;56.802;23.964;2022-10-10T06:07:01;6.90;89.10
73438;DHT22;62744;56.802;23.964;2022-10-10T06:09:28;6.90;88.90
73438;DHT22;62744;56.802;23.964;2022-10-10T06:11:56;7.10;88.40
73438;DHT22;62744;56.802;23.964;2022-10-10T06:14:23;7.20;88.90
73438;DHT22;62744;56.802;23.964;2022-10-10T06:16:51;7.30;88.20
73438;DHT22;62744;56.802;23.964;2022-10-10T06:19:18;7.50;87.60
73438;DHT22;62744;56.802;23.964;2022-10-10T06:21:48;7.50;87.60
73438;DHT22;62744;56.802;23.964;2022-10-10T06:24:15;7.50;88.20
73438;DHT22;62744;56.802;23.964;2022-10-10T06:26:43;7.60;88.40
73438;DHT22;62744;56.802;23.964;2022-10-10T06:29:10;7.70;88.70
73438;DHT22;62744;56.802;23.964;2022-10-10T06:31:38;7.70;88.60
73438;DHT22;62744;56.802;23.964;2022-10-10T06:34:07;7.70;87.80
73438;DHT22;62744;56.802;23.964;2022-10-10T06:36:34;7.60;87.80
73438;DHT22;62744;56.802;23.964;2022-10-10T06:39:02;7.70;88.00
73438;DHT22;62744;56.802;23.964;2022-10-10T06:41:30;7.80;88.00
73438;DHT22;62744;56.802;23.964;2022-10-10T06:43:57;7.90;87.90
73438;DHT22;62744;56.802;23.964;2022-10-10T06:46:25;8.00;88.30
73438;DHT22;62744;56.802;23.964;2022-10-10T06:48:53;8.30;87.60
73438;DHT22;62744;56.802;23.964;2022-10-10T06:51:20;8.30;87.60
73438;DHT22;62744;56.802;23.964;2022-10-10T06:53:48;8.30;87.70
73438;DHT22;62744;56.802;23.964;2022-10-10T06:56:15;8.40;87.70
73438;DHT22;62744;56.802;23.964;2022-10-10T06:58:53;8.30;88.50
73438;DHT22;62744;56.802;23.964;2022-10-10T07:01:22;8.50;88.00
73438;DHT22;62744;56.802;23.964;2022-10-10T07:03:50;8.50;88.60
73438;DHT22;62744;56.802;23.964;2022-10-10T07:06:18;8.50;88.40
73438;DHT22;62744;56.802;23.964;2022-10-10T07:08:46;8.50;88.60
73438;DHT22;62744;56.802;23.964;2022-10-10T07:11:13;8.60;88.50
73438;DHT22;62744;56.802;23.964;2022-10-10T07:13:41;8.80;88.70
73438;DHT22;62744;56.802;23.964;2022-10-10T07:16:09;8.80;89.00
73438;DHT22;62744;56.802;23.964;2022-10-10T07:18:37;8.60;89.00
73438;DHT22;62744;56.802;23.964;2022-10-10T07:21:05;8.80;89.20
73438;DHT22;62744;56.802;23.964;2022-10-10T07:23:32;8.80;89.20
73438;DHT22;62744;56.802;23.964;2022-10-10T07:26:08;8.90;88.80
73438;DHT22;62744;56.802;23.964;2022-10-10T07:28:37;8.90;88.80
73438;DHT22;62744;56.802;23.964;2022-10-10T07:31:08;8.90;88.30
73438;DHT22;62744;56.802;23.964;2022-10-10T07:33:44;9.00;87.90
73438;DHT22;62744;56.802;23.964;2022-10-10T07:36:17;9.10;89.00
73438;DHT22;62744;56.802;23.964;2022-10-10T07:38:48;9.20;88.70
73438;DHT22;62744;56.802;23.964;2022-10-10T07:41:18;9.20;89.20
73438;DHT22;62744;56.802;23.964;2022-10-10T07:43:46;9.30;88.20
73438;DHT22;62744;56.802;23.964;2022-10-10T07:46:15;9.30;88.80
73438;DHT22;62744;56.802;23.964;2022-10-10T07:48:43;9.30;88.00
73438;DHT22;62744;56.802;23.964;2022-10-10T07:51:11;9.40;88.70
73438;DHT22;62744;56.802;23.964;2022-10-10T07:53:39;9.50;88.30
73438;DHT22;62744;56.802;23.964;2022-10-10T07:56:08;9.60;88.40
73438;DHT22;62744;56.802;23.964;2022-10-10T07:58:36;9.80;89.00
73438;DHT22;62744;56.802;23.964;2022-10-10T08:01:06;9.80;88.20
73438;DHT22;62744;56.802;23.964;2022-10-10T08:03:35;9.90;88.40
73438;DHT22;62744;56.802;23.964;2022-10-10T08:06:08;9.90;88.00
73438;DHT22;62744;56.802;23.964;2022-10-10T08:08:36;10.00;87.70
73438;DHT22;62744;56.802;23.964;2022-10-10T08:11:17;10.00;87.10
73438;DHT22;62744;56.802;23.964;2022-10-10T08:13:45;10.10;87.80
73438;DHT22;62744;56.802;23.964;2022-10-10T08:16:12;10.20;88.30
73438;DHT22;62744;56.802;23.964;2022-10-10T08:18:40;10.20;87.70
73438;DHT22;62744;56.802;23.964;2022-10-10T08:21:10;10.30;87.60
73438;DHT22;62744;56.802;23.964;2022-10-10T08:23:38;10.40;87.90
73438;DHT22;62744;56.802;23.964;2022-10-10T08:26:08;10.50;87.00
73438;DHT22;62744;56.802;23.964;2022-10-10T08:28:37;10.60;87.10
73438;DHT22;62744;56.802;23.964;2022-10-10T08:31:12;10.70;88.00
73438;DHT22;62744;56.802;23.964;2022-10-10T08:33:42;10.80;86.70
73438;DHT22;62744;56.802;23.964;2022-10-10T08:36:18;10.90;87.00
73438;DHT22;62744;56.802;23.964;2022-10-10T08:38:46;11.10;86.30
73438;DHT22;62744;56.802;23.964;2022-10-10T08:44:17;11.50;86.70
73438;DHT22;62744;56.802;23.964;2022-10-10T08:49:33;12.00;85.50
73438;DHT22;62744;56.802;23.964;2022-10-10T08:52:13;12.10;85.30
73438;DHT22;62744;56.802;23.964;2022-10-10T08:54:42;12.20;84.30
73438;DHT22;62744;56.802;23.964;2022-10-10T08:58:23;12.20;84.50
73438;DHT22;62744;56.802;23.964;2022-10-10T09:00:22;12.20;85.60
73438;DHT22;62744;56.802;23.964;2022-10-10T09:02:55;12.40;84.60
73438;DHT22;62744;56.802;23.964;2022-10-10T09:08:17;12.70;82.10
73438;DHT22;62744;56.802;23.964;2022-10-10T09:11:02;12.70;83.70
73438;DHT22;62744;56.802;23.964;2022-10-10T09:13:33;12.60;82.70
73438;DHT22;62744;56.802;23.964;2022-10-10T09:16:33;12.70;83.40
73438;DHT22;62744;56.802;23.964;2022-10-10T09:22:02;12.70;82.40
73438;DHT22;62744;56.802;23.964;2022-10-10T09:24:42;12.80;82.30
73438;DHT22;62744;56.802;23.964;2022-10-10T09:27:27;12.80;82.40
73438;DHT22;62744;56.802;23.964;2022-10-10T09:30:04;12.90;83.40
73438;DHT22;62744;56.802;23.964;2022-10-10T09:32:49;13.00;82.30
73438;DHT22;62744;56.802;23.964;2022-10-10T09:35:22;13.10;82.40
73438;DHT22;62744;56.802;23.964;2022-10-10T09:41:10;13.30;81.30
73438;DHT22;62744;56.802;23.964;2022-10-10T09:43:40;13.40;81.40
73438;DHT22;62744;56.802;23.964;2022-10-10T09:46:08;13.60;80.80
73438;DHT22;62744;56.802;23.964;2022-10-10T09:48:40;13.70;80.30
73438;DHT22;62744;56.802;23.964;2022-10-10T09:51:14;13.70;79.20
73438;DHT22;62744;56.802;23.964;2022-10-10T09:53:44;13.80;80.10
73438;DHT22;62744;56.802;23.964;2022-10-10T09:56:22;13.90;78.30
73438;DHT22;62744;56.802;23.964;2022-10-10T09:58:52;13.90;78.00
73438;DHT22;62744;56.802;23.964;2022-10-10T10:04:18;13.80;77.20
73438;DHT22;62744;56.802;23.964;2022-10-10T10:07:05;13.80;77.60
73438;DHT22;62744;56.802;23.964;2022-10-10T10:09:33;14.00;77.10
73438;DHT22;62744;56.802;23.964;2022-10-10T10:12:03;14.20;77.20
73438;DHT22;62744;56.802;23.964;2022-10-10T10:14:36;14.50;77.80
73438;DHT22;62744;56.802;23.964;2022-10-10T10:17:14;14.70;77.60
73438;DHT22;62744;56.802;23.964;2022-10-10T10:19:44;14.90;75.50
73438;DHT22;62744;56.802;23.964;2022-10-10T10:22:33;15.00;76.10
73438;DHT22;62744;56.802;23.964;2022-10-10T10:25:30;15.00;74.70
73438;DHT22;62744;56.802;23.964;2022-10-10T10:28:24;14.90;74.00
73438;DHT22;62744;56.802;23.964;2022-10-10T10:30:57;14.80;73.30
73438;DHT22;62744;56.802;23.964;2022-10-10T10:33:52;14.70;73.40
73438;DHT22;62744;56.802;23.964;2022-10-10T10:42:12;14.50;73.30
73438;DHT22;62744;56.802;23.964;2022-10-10T10:55:37;14.40;71.50
73438;DHT22;62744;56.802;23.964;2022-10-10T10:58:24;14.40;71.00
73438;DHT22;62744;56.802;23.964;2022-10-10T11:04:42;14.50;69.20
73438;DHT22;62744;56.802;23.964;2022-10-10T11:07:49;14.60;68.40
73438;DHT22;62744;56.802;23.964;2022-10-10T11:10:38;14.60;69.50
73438;DHT22;62744;56.802;23.964;2022-10-10T11:16:29;14.60;70.70
73438;DHT22;62744;56.802;23.964;2022-10-10T11:22:10;14.50;70.40
73438;DHT22;62744;56.802;23.964;2022-10-10T11:32:18;14.00;72.10
73438;DHT22;62744;56.802;23.964;2022-10-10T11:37:39;13.90;72.10
73438;DHT22;62744;56.802;23.964;2022-10-10T11:40:25;13.90;72.40
73438;DHT22;62744;56.802;23.964;2022-10-10T11:43:21;14.10;72.30
73438;DHT22;62744;56.802;23.964;2022-10-10T11:45:47;14.30;72.00
73438;DHT22;62744;56.802;23.964;2022-10-10T11:48:44;14.40;69.70
73438;DHT22;62744;56.802;23.964;2022-10-10T11:54:41;14.40;70.30
73438;DHT22;62744;56.802;23.964;2022-10-10T11:57:20;14.30;70.70
73438;DHT22;62744;56.802;23.964;2022-10-10T11:59:54;14.30;70.40
73438;DHT22;62744;56.802;23.964;2022-10-10T12:02:35;14.10;71.00
73438;DHT22;62744;56.802;23.964;2022-10-10T12:05:04;14.20;71.30
73438;DHT22;62744;56.802;23.964;2022-10-10T12:10:45;14.20;71.70
73438;DHT22;62744;56.802;23.964;2022-10-10T12:13:25;14.40;70.10
73438;DHT22;62744;56.802;23.964;2022-10-10T12:15:56;14.30;70.10
73438;DHT22;62744;56.802;23.964;2022-10-10T12:18:31;14.40;70.40
73438;DHT22;62744;56.802;23.964;2022-10-10T12:21:13;14.40;70.70
73438;DHT22;62744;56.802;23.964;2022-10-10T12:24:03;14.50;69.20
73438;DHT22;62744;56.802;23.964;2022-10-10T12:37:34;14.10;69.40
73438;DHT22;62744;56.802;23.964;2022-10-10T12:40:18;14.10;68.80
73438;DHT22;62744;56.802;23.964;2022-10-10T12:48:03;14.30;69.80
73438;DHT22;62744;56.802;23.964;2022-10-10T12:50:40;14.20;68.40
73438;DHT22;62744;56.802;23.964;2022-10-10T12:55:44;14.30;69.70
73438;DHT22;62744;56.802;23.964;2022-10-10T12:58:24;14.30;68.50
73438;DHT22;62744;56.802;23.964;2022-10-10T13:00:59;14.30;68.80
73438;DHT22;62744;56.802;23.964;2022-10-10T13:03:38;14.40;68.60
73438;DHT22;62744;56.802;23.964;2022-10-10T13:08:59;14.40;68.30
73438;DHT22;62744;56.802;23.964;2022-10-10T13:11:29;14.40;68.40
73438;DHT22;62744;56.802;23.964;2022-10-10T13:13:57;14.40;69.10
73438;DHT22;62744;56.802;23.964;2022-10-10T13:16:27;14.30;68.40
73438;DHT22;62744;56.802;23.964;2022-10-10T13:19:00;14.10;69.30
73438;DHT22;62744;56.802;23.964;2022-10-10T13:21:28;14.30;68.80
73438;DHT22;62744;56.802;23.964;2022-10-10T13:24:02;14.20;69.00
73438;DHT22;62744;56.802;23.964;2022-10-10T13:26:38;14.20;67.90
73438;DHT22;62744;56.802;23.964;2022-10-10T13:31:46;14.20;68.50
73438;DHT22;62744;56.802;23.964;2022-10-10T13:34:20;14.20;69.10
73438;DHT22;62744;56.802;23.964;2022-10-10T13:36:55;14.20;69.50
73438;DHT22;62744;56.802;23.964;2022-10-10T13:39:23;14.20;68.30
73438;DHT22;62744;56.802;23.964;2022-10-10T13:41:51;14.00;69.10
73438;DHT22;62744;56.802;23.964;2022-10-10T13:50:21;14.00;69.50
73438;DHT22;62744;56.802;23.964;2022-10-10T13:52:49;14.00;69.30
73438;DHT22;62744;56.802;23.964;2022-10-10T13:55:25;14.00;70.20
73438;DHT22;62744;56.802;23.964;2022-10-10T13:57:53;13.90;69.40
73438;DHT22;62744;56.802;23.964;2022-10-10T14:00:27;13.90;69.90
73438;DHT22;62744;56.802;23.964;2022-10-10T14:02:59;13.90;70.30
73438;DHT22;62744;56.802;23.964;2022-10-10T14:05:29;13.90;70.70
73438;DHT22;62744;56.802;23.964;2022-10-10T14:07:57;13.90;70.30
73438;DHT22;62744;56.802;23.964;2022-10-10T14:10:27;14.00;70.20
73438;DHT22;62744;56.802;23.964;2022-10-10T14:12:58;13.80;70.30
73438;DHT22;62744;56.802;23.964;2022-10-10T14:15:42;13.80;69.50
73438;DHT22;62744;56.802;23.964;2022-10-10T14:18:21;13.60;70.00
73438;DHT22;62744;56.802;23.964;2022-10-10T14:20:49;13.70;69.70
73438;DHT22;62744;56.802;23.964;2022-10-10T14:23:17;13.70;69.50
73438;DHT22;62744;56.802;23.964;2022-10-10T14:25:46;13.70;69.30
73438;DHT22;62744;56.802;23.964;2022-10-10T14:28:20;13.60;68.70
73438;DHT22;62744;56.802;23.964;2022-10-10T14:30:48;13.60;69.00
73438;DHT22;62744;56.802;23.964;2022-10-10T14:33:17;13.50;68.80
73438;DHT22;62744;56.802;23.964;2022-10-10T14:35:46;13.60;68.60
73438;DHT22;62744;56.802;23.964;2022-10-10T14:38:14;13.50;69.00
73438;DHT22;62744;56.802;23.964;2022-10-10T14:40:44;13.50;67.60
73438;DHT22;62744;56.802;23.964;2022-10-10T14:43:12;13.50;68.40
73438;DHT22;62744;56.802;23.964;2022-10-10T14:45:39;13.40;69.20
73438;DHT22;62744;56.802;23.964;2022-10-10T14:48:09;13.30;69.10
73438;DHT22;62744;56.802;23.964;2022-10-10T14:50:40;13.30;68.80
73438;DHT22;62744;56.802;23.964;2022-10-10T14:53:10;13.20;69.30
73438;DHT22;62744;56.802;23.964;2022-10-10T14:55:38;13.10;69.60
73438;DHT22;62744;56.802;23.964;2022-10-10T14:58:27;13.00;69.60
73438;DHT22;62744;56.802;23.964;2022-10-10T15:00:55;13.00;69.60
73438;DHT22;62744;56.802;23.964;2022-10-10T15:03:23;12.90;69.70
73438;DHT22;62744;56.802;23.964;2022-10-10T15:05:51;12.80;70.20
73438;DHT22;62744;56.802;23.964;2022-10-10T15:08:18;12.80;70.70
73438;DHT22;62744;56.802;23.964;2022-10-10T15:10:46;12.60;72.20
73438;DHT22;62744;56.802;23.964;2022-10-10T15:13:14;12.50;72.80
73438;DHT22;62744;56.802;23.964;2022-10-10T15:15:42;12.50;73.40
73438;DHT22;62744;56.802;23.964;2022-10-10T15:18:09;12.30;73.60
73438;DHT22;62744;56.802;23.964;2022-10-10T15:20:57;12.20;75.70
73438;DHT22;62744;56.802;23.964;2022-10-10T15:23:25;12.70;72.70
73438;DHT22;62744;56.802;23.964;2022-10-10T15:25:57;12.60;73.20
73438;DHT22;62744;56.802;23.964;2022-10-10T15:28:27;12.40;74.10
73438;DHT22;62744;56.802;23.964;2022-10-10T15:30:55;12.10;74.50
73438;DHT22;62744;56.802;23.964;2022-10-10T15:33:23;11.90;75.40
73438;DHT22;62744;56.802;23.964;2022-10-10T15:36:02;11.70;75.60
73438;DHT22;62744;56.802;23.964;2022-10-10T15:38:36;11.60;75.80
73438;DHT22;62744;56.802;23.964;2022-10-10T15:41:09;11.40;76.20
73438;DHT22;62744;56.802;23.964;2022-10-10T15:43:49;11.20;76.80
73438;DHT22;62744;56.802;23.964;2022-10-10T15:46:26;11.00;77.30
73438;DHT22;62744;56.802;23.964;2022-10-10T15:48:58;10.90;77.80
73438;DHT22;62744;56.802;23.964;2022-10-10T15:51:26;10.80;78.20
73438;DHT22;62744;56.802;23.964;2022-10-10T15:53:56;10.70;78.40
73438;DHT22;62744;56.802;23.964;2022-10-10T15:56:25;10.70;78.60
73438;DHT22;62744;56.802;23.964;2022-10-10T15:58:55;10.60;78.90
73438;DHT22;62744;56.802;23.964;2022-10-10T16:01:33;10.50;79.20
73438;DHT22;62744;56.802;23.964;2022-10-10T16:04:03;10.40;79.30
73438;DHT22;62744;56.802;23.964;2022-10-10T16:06:35;10.30;79.70
73438;DHT22;62744;56.802;23.964;2022-10-10T16:09:03;10.30;80.20
73438;DHT22;62744;56.802;23.964;2022-10-10T16:11:52;10.20;80.20
73438;DHT22;62744;56.802;23.964;2022-10-10T16:14:20;10.20;80.50
73438;DHT22;62744;56.802;23.964;2022-10-10T16:16:48;10.10;80.80
73438;DHT22;62744;56.802;23.964;2022-10-10T16:19:17;10.20;80.90
73438;DHT22;62744;56.802;23.964;2022-10-10T16:21:45;10.10;81.30
73438;DHT22;62744;56.802;23.964;2022-10-10T16:24:14;10.00;81.40
73438;DHT22;62744;56.802;23.964;2022-10-10T16:26:41;10.20;81.80
73438;DHT22;62744;56.802;23.964;2022-10-10T16:29:10;10.20;81.80
73438;DHT22;62744;56.802;23.964;2022-10-10T16:31:39;10.10;81.80
73438;DHT22;62744;56.802;23.964;2022-10-10T16:34:10;10.00;81.70
73438;DHT22;62744;56.802;23.964;2022-10-10T16:36:40;10.00;82.30
73438;DHT22;62744;56.802;23.964;2022-10-10T16:39:12;9.90;82.30
73438;DHT22;62744;56.802;23.964;2022-10-10T16:41:40;9.90;82.60
73438;DHT22;62744;56.802;23.964;2022-10-10T16:44:15;9.80;82.90
73438;DHT22;62744;56.802;23.964;2022-10-10T16:46:43;9.80;83.20
73438;DHT22;62744;56.802;23.964;2022-10-10T16:49:12;9.70;83.10
73438;DHT22;62744;56.802;23.964;2022-10-10T16:51:43;9.70;83.40
73438;DHT22;62744;56.802;23.964;2022-10-10T16:54:11;9.60;83.80
73438;DHT22;62744;56.802;23.964;2022-10-10T16:56:38;9.50;83.80
73438;DHT22;62744;56.802;23.964;2022-10-10T16:59:07;9.50;84.00
73438;DHT22;62744;56.802;23.964;2022-10-10T17:01:36;9.50;83.80
73438;DHT22;62744;56.802;23.964;2022-10-10T17:04:04;9.50;84.40
73438;DHT22;62744;56.802;23.964;2022-10-10T17:06:33;9.30;84.50
73438;DHT22;62744;56.802;23.964;2022-10-10T17:09:06;9.30;84.70
73438;DHT22;62744;56.802;23.964;2022-10-10T17:11:38;9.40;84.70
73438;DHT22;62744;56.802;23.964;2022-10-10T17:14:06;9.30;84.70
73438;DHT22;62744;56.802;23.964;2022-10-10T17:16:34;9.20;85.00
73438;DHT22;62744;56.802;23.964;2022-10-10T17:19:22;9.20;85.00
73438;DHT22;62744;56.802;23.964;2022-10-10T17:21:51;9.20;85.00
73438;DHT22;62744;56.802;23.964;2022-10-10T17:24:19;9.20;85.00
73438;DHT22;62744;56.802;23.964;2022-10-10T17:26:47;9.10;85.00
73438;DHT22;62744;56.802;23.964;2022-10-10T17:29:15;9.10;85.50
73438;DHT22;62744;56.802;23.964;2022-10-10T17:31:42;9.10;85.30
73438;DHT22;62744;56.802;23.964;2022-10-10T17:34:10;9.10;85.20
73438;DHT22;62744;56.802;23.964;2022-10-10T17:36:37;8.90;85.40
73438;DHT22;62744;56.802;23.964;2022-10-10T17:39:05;9.00;85.30